ENOV Airport Information

Runway Information
Runway 06 Length 2920 ft width 98 ft
Elevation 241 ft Threshold 0 ft Heading 0
Runway 24 Length 2920 ft Width 98 ft
Elevation 238 ft Threshold 0 ft Heading 0
Airport Frequencies
Airport Navaids
Type NDB Name Baatvik Frequency 362 KHZ
Type NDB Name Hovden Frequency 389 KHZ
Airport Weather Information & NOTAM
ADDS - METARS form results

(1954 UTC 21 March 2019)
Data provider http://aviationweather.gov/metar/data/
 
METAR text: ENOV 211920Z VRB02KT CAVOK 01/M00 Q1025 RMK WIND 2175FT 14017KT
Conditions at: ENOV (ORSTA-VOLDA/HOVD, NO) observed 1920 UTC 21 March 2019
Temperature: 1.0°C (34°F)
Dewpoint: 0.0°C (32°F) [RH = 93%]
Pressure (altimeter): 30.27 inches Hg (1025.0 mb)
Winds: variable direction winds at 2 MPH (2 knots; 1.0 m/s)
Visibility: 6 or more miles (10+ km)
Ceiling: ceiling and visibility are OK
Clouds: unknown
Weather: no significant weather observed at this time